sensor_id;sensor_type;location;lat;lon;timestamp;pressure;altitude;pressure_sealevel;temperature;humidity
4398;BME280;2213;49.720;7.296;2024-01-11T00:00:51;99229.41;;;-5.45;100.00
4398;BME280;2213;49.720;7.296;2024-01-11T00:03:19;99226.19;;;-5.50;100.00
4398;BME280;2213;49.720;7.296;2024-01-11T00:05:49;99233.72;;;-5.47;100.00
4398;BME280;2213;49.720;7.296;2024-01-11T00:08:18;99227.63;;;-5.43;100.00
4398;BME280;2213;49.720;7.296;2024-01-11T00:10:47;99229.03;;;-5.36;100.00
4398;BME280;2213;49.720;7.296;2024-01-11T00:13:16;99222.41;;;-5.40;100.00
4398;BME280;2213;49.720;7.296;2024-01-11T00:15:44;99229.03;;;-5.36;100.00
4398;BME280;2213;49.720;7.296;2024-01-11T00:18:13;99222.53;;;-5.43;100.00
4398;BME280;2213;49.720;7.296;2024-01-11T00:20:42;99217.56;;;-5.46;100.00
4398;BME280;2213;49.720;7.296;2024-01-11T00:23:12;99221.88;;;-5.48;100.00
4398;BME280;2213;49.720;7.296;2024-01-11T00:25:40;99233.84;;;-5.50;100.00
4398;BME280;2213;49.720;7.296;2024-01-11T00:28:09;99236.13;;;-5.44;100.00
4398;BME280;2213;49.720;7.296;2024-01-11T00:30:38;99236.34;;;-5.49;100.00
4398;BME280;2213;49.720;7.296;2024-01-11T00:33:06;99239.09;;;-5.55;100.00
4398;BME280;2213;49.720;7.296;2024-01-11T00:35:36;99242.44;;;-5.53;100.00
4398;BME280;2213;49.720;7.296;2024-01-11T00:38:05;99233.34;;;-5.60;100.00
4398;BME280;2213;49.720;7.296;2024-01-11T00:40:35;99241.00;;;-5.60;100.00
4398;BME280;2213;49.720;7.296;2024-01-11T00:43:04;99239.94;;;-5.54;100.00
4398;BME280;2213;49.720;7.296;2024-01-11T00:45:33;99242.66;;;-5.59;100.00
4398;BME280;2213;49.720;7.296;2024-01-11T00:48:03;99241.72;;;-5.56;100.00
4398;BME280;2213;49.720;7.296;2024-01-11T00:50:32;99252.03;;;-5.60;100.00
4398;BME280;2213;49.720;7.296;2024-01-11T00:53:00;99250.22;;;-5.57;100.00
4398;BME280;2213;49.720;7.296;2024-01-11T00:55:30;99261.41;;;-5.62;100.00
4398;BME280;2213;49.720;7.296;2024-01-11T00:58:00;99263.38;;;-5.68;100.00
4398;BME280;2213;49.720;7.296;2024-01-11T01:00:28;99261.81;;;-5.72;100.00
4398;BME280;2213;49.720;7.296;2024-01-11T01:02:57;99256.72;;;-5.72;100.00
4398;BME280;2213;49.720;7.296;2024-01-11T01:05:25;99254.25;;;-5.74;100.00
4398;BME280;2213;49.720;7.296;2024-01-11T01:07:54;99264.44;;;-5.74;100.00
4398;BME280;2213;49.720;7.296;2024-01-11T01:10:23;99268.69;;;-5.74;100.00
4398;BME280;2213;49.720;7.296;2024-01-11T01:12:52;99262.88;;;-5.78;100.00
4398;BME280;2213;49.720;7.296;2024-01-11T01:15:21;99268.56;;;-5.71;100.00
4398;BME280;2213;49.720;7.296;2024-01-11T01:17:50;99270.06;;;-5.66;100.00
4398;BME280;2213;49.720;7.296;2024-01-11T01:20:19;99270.47;;;-5.76;100.00
4398;BME280;2213;49.720;7.296;2024-01-11T01:22:47;99275.88;;;-5.85;100.00
4398;BME280;2213;49.720;7.296;2024-01-11T01:25:15;99272.53;;;-5.86;100.00
4398;BME280;2213;49.720;7.296;2024-01-11T01:27:44;99271.50;;;-5.82;100.00
4398;BME280;2213;49.720;7.296;2024-01-11T01:30:12;99274.13;;;-5.83;100.00
4398;BME280;2213;49.720;7.296;2024-01-11T01:32:42;99279.25;;;-5.85;100.00
4398;BME280;2213;49.720;7.296;2024-01-11T01:35:11;99282.00;;;-5.89;100.00
4398;BME280;2213;49.720;7.296;2024-01-11T01:37:40;99282.06;;;-5.91;100.00
4398;BME280;2213;49.720;7.296;2024-01-11T01:40:10;99280.50;;;-5.95;100.00
4398;BME280;2213;49.720;7.296;2024-01-11T01:42:42;99284.75;;;-5.95;100.00
4398;BME280;2213;49.720;7.296;2024-01-11T01:45:12;99287.41;;;-5.98;100.00
4398;BME280;2213;49.720;7.296;2024-01-11T01:47:43;99288.91;;;-5.93;100.00
4398;BME280;2213;49.720;7.296;2024-01-11T01:50:13;99282.47;;;-6.03;100.00
4398;BME280;2213;49.720;7.296;2024-01-11T01:52:43;99294.72;;;-6.13;100.00
4398;BME280;2213;49.720;7.296;2024-01-11T01:55:14;99293.56;;;-6.04;100.00
4398;BME280;2213;49.720;7.296;2024-01-11T01:57:45;99292.91;;;-6.11;100.00
4398;BME280;2213;49.720;7.296;2024-01-11T02:00:14;99296.53;;;-6.16;100.00
4398;BME280;2213;49.720;7.296;2024-01-11T02:02:45;99289.88;;;-6.20;100.00
4398;BME280;2213;49.720;7.296;2024-01-11T02:05:16;99290.44;;;-6.12;100.00
4398;BME280;2213;49.720;7.296;2024-01-11T02:07:45;99290.34;;;-6.09;100.00
4398;BME280;2213;49.720;7.296;2024-01-11T02:10:14;99297.00;;;-6.05;100.00
4398;BME280;2213;49.720;7.296;2024-01-11T02:12:43;99307.81;;;-6.00;100.00
4398;BME280;2213;49.720;7.296;2024-01-11T02:15:11;99299.31;;;-5.99;100.00
4398;BME280;2213;49.720;7.296;2024-01-11T02:17:40;99296.31;;;-6.10;100.00
4398;BME280;2213;49.720;7.296;2024-01-11T02:20:12;99298.91;;;-6.12;100.00
4398;BME280;2213;49.720;7.296;2024-01-11T02:22:47;99294.59;;;-6.09;100.00
4398;BME280;2213;49.720;7.296;2024-01-11T02:25:19;99289.34;;;-6.05;100.00
4398;BME280;2213;49.720;7.296;2024-01-11T02:27:49;99288.66;;;-6.10;100.00
4398;BME280;2213;49.720;7.296;2024-01-11T02:30:18;99286.81;;;-6.05;100.00
4398;BME280;2213;49.720;7.296;2024-01-11T02:32:49;99282.66;;;-6.07;100.00
4398;BME280;2213;49.720;7.296;2024-01-11T02:35:19;99290.94;;;-6.02;100.00
4398;BME280;2213;49.720;7.296;2024-01-11T02:37:49;99284.38;;;-6.08;100.00
4398;BME280;2213;49.720;7.296;2024-01-11T02:40:19;99293.00;;;-6.12;100.00
4398;BME280;2213;49.720;7.296;2024-01-11T02:42:48;99294.75;;;-6.14;100.00
4398;BME280;2213;49.720;7.296;2024-01-11T02:45:17;99294.38;;;-6.03;100.00
4398;BME280;2213;49.720;7.296;2024-01-11T02:47:46;99289.34;;;-6.05;100.00
4398;BME280;2213;49.720;7.296;2024-01-11T02:50:13;99281.84;;;-6.08;100.00
4398;BME280;2213;49.720;7.296;2024-01-11T02:52:42;99281.75;;;-6.06;100.00
4398;BME280;2213;49.720;7.296;2024-01-11T02:55:10;99277.72;;;-6.12;100.00
4398;BME280;2213;49.720;7.296;2024-01-11T02:57:41;99284.38;;;-6.08;100.00
4398;BME280;2213;49.720;7.296;2024-01-11T03:00:11;99282.72;;;-6.09;100.00
4398;BME280;2213;49.720;7.296;2024-01-11T03:02:39;99277.66;;;-6.11;100.00
4398;BME280;2213;49.720;7.296;2024-01-11T03:05:08;99276.84;;;-6.11;100.00
4398;BME280;2213;49.720;7.296;2024-01-11T03:07:37;99282.03;;;-6.14;100.00
4398;BME280;2213;49.720;7.296;2024-01-11T03:10:07;99282.81;;;-6.12;100.00
4398;BME280;2213;49.720;7.296;2024-01-11T03:12:36;99279.47;;;-6.14;100.00
4398;BME280;2213;49.720;7.296;2024-01-11T03:15:07;99289.66;;;-6.14;100.00
4398;BME280;2213;49.720;7.296;2024-01-11T03:17:36;99289.66;;;-6.14;100.00
4398;BME280;2213;49.720;7.296;2024-01-11T03:20:06;99283.66;;;-6.36;100.00
4398;BME280;2213;49.720;7.296;2024-01-11T03:22:35;99283.34;;;-6.27;100.00
4398;BME280;2213;49.720;7.296;2024-01-11T03:25:05;99274.06;;;-6.28;100.00
4398;BME280;2213;49.720;7.296;2024-01-11T03:27:34;99274.13;;;-6.31;100.00
4398;BME280;2213;49.720;7.296;2024-01-11T03:30:03;99276.50;;;-6.25;100.00
4398;BME280;2213;49.720;7.296;2024-01-11T03:32:34;99271.50;;;-6.28;100.00
4398;BME280;2213;49.720;7.296;2024-01-11T03:35:03;99267.19;;;-6.26;100.00
4398;BME280;2213;49.720;7.296;2024-01-11T03:37:32;99270.00;;;-6.34;100.00
4398;BME280;2213;49.720;7.296;2024-01-11T03:40:01;99269.75;;;-6.26;100.00
4398;BME280;2213;49.720;7.296;2024-01-11T03:42:31;99267.91;;;-6.23;100.00
4398;BME280;2213;49.720;7.296;2024-01-11T03:44:59;99267.09;;;-6.23;100.00
4398;BME280;2213;49.720;7.296;2024-01-11T03:47:28;99260.75;;;-6.36;100.00
4398;BME280;2213;49.720;7.296;2024-01-11T03:49:58;99269.97;;;-6.32;100.00
4398;BME280;2213;49.720;7.296;2024-01-11T03:52:26;99261.22;;;-6.25;100.00
4398;BME280;2213;49.720;7.296;2024-01-11T03:54:55;99265.75;;;-6.33;100.00
4398;BME280;2213;49.720;7.296;2024-01-11T03:57:24;99263.19;;;-6.33;100.00
4398;BME280;2213;49.720;7.296;2024-01-11T03:59:52;99257.16;;;-6.31;100.00
4398;BME280;2213;49.720;7.296;2024-01-11T04:02:21;99253.84;;;-6.33;100.00
4398;BME280;2213;49.720;7.296;2024-01-11T04:04:49;99254.59;;;-6.29;100.00
4398;BME280;2213;49.720;7.296;2024-01-11T04:07:19;99253.75;;;-6.30;100.00
4398;BME280;2213;49.720;7.296;2024-01-11T04:09:47;99259.81;;;-6.34;100.00
4398;BME280;2213;49.720;7.296;2024-01-11T04:12:16;99257.41;;;-6.38;100.00
4398;BME280;2213;49.720;7.296;2024-01-11T04:14:44;99263.31;;;-6.36;100.00
4398;BME280;2213;49.720;7.296;2024-01-11T04:17:13;99272.53;;;-6.34;100.00
4398;BME280;2213;49.720;7.296;2024-01-11T04:19:41;99256.31;;;-6.31;100.00
4398;BME280;2213;49.720;7.296;2024-01-11T04:22:10;99260.50;;;-6.29;100.00
4398;BME280;2213;49.720;7.296;2024-01-11T04:24:42;99262.97;;;-6.27;100.00
4398;BME280;2213;49.720;7.296;2024-01-11T04:27:11;99262.88;;;-6.24;100.00
4398;BME280;2213;49.720;7.296;2024-01-11T04:29:39;99264.44;;;-6.20;100.00
4398;BME280;2213;49.720;7.296;2024-01-11T04:32:08;99256.88;;;-6.22;100.00
4398;BME280;2213;49.720;7.296;2024-01-11T04:34:37;99259.34;;;-6.20;100.00
4398;BME280;2213;49.720;7.296;2024-01-11T04:37:06;99261.97;;;-6.22;100.00
4398;BME280;2213;49.720;7.296;2024-01-11T04:39:35;99265.25;;;-6.20;100.00
4398;BME280;2213;49.720;7.296;2024-01-11T04:42:05;99269.50;;;-6.20;100.00
4398;BME280;2213;49.720;7.296;2024-01-11T04:44:33;99264.31;;;-6.17;100.00
4398;BME280;2213;49.720;7.296;2024-01-11T04:47:02;99257.59;;;-6.18;100.00
4398;BME280;2213;49.720;7.296;2024-01-11T04:49:31;99254.94;;;-6.15;100.00
4398;BME280;2213;49.720;7.296;2024-01-11T04:51:59;99261.16;;;-6.24;100.00
4398;BME280;2213;49.720;7.296;2024-01-11T04:54:28;99271.41;;;-6.25;100.00
4398;BME280;2213;49.720;7.296;2024-01-11T04:56:56;99272.94;;;-6.21;100.00
4398;BME280;2213;49.720;7.296;2024-01-11T04:59:26;99270.47;;;-6.23;100.00
4398;BME280;2213;49.720;7.296;2024-01-11T05:01:55;99271.41;;;-6.25;100.00
4398;BME280;2213;49.720;7.296;2024-01-11T05:04:23;99268.78;;;-6.24;100.00
4398;BME280;2213;49.720;7.296;2024-01-11T05:06:52;99267.13;;;-6.25;100.00
4398;BME280;2213;49.720;7.296;2024-01-11T05:09:20;99266.44;;;-6.28;100.00
4398;BME280;2213;49.720;7.296;2024-01-11T05:11:49;99261.28;;;-6.27;100.00
4398;BME280;2213;49.720;7.296;2024-01-11T05:14:17;99267.78;;;-6.18;100.00
4398;BME280;2213;49.720;7.296;2024-01-11T05:16:47;99274.72;;;-6.23;100.00
4398;BME280;2213;49.720;7.296;2024-01-11T05:19:16;99272.13;;;-6.22;100.00
4398;BME280;2213;49.720;7.296;2024-01-11T05:21:44;99272.94;;;-6.21;100.00
4398;BME280;2213;49.720;7.296;2024-01-11T05:24:13;99263.66;;;-6.22;100.00
4398;BME280;2213;49.720;7.296;2024-01-11T05:26:41;99271.28;;;-6.22;100.00
4398;BME280;2213;49.720;7.296;2024-01-11T05:29:10;99272.94;;;-6.21;100.00
4398;BME280;2213;49.720;7.296;2024-01-11T05:31:38;99275.22;;;-6.14;100.00
4398;BME280;2213;49.720;7.296;2024-01-11T05:34:08;99276.16;;;-6.16;100.00
4398;BME280;2213;49.720;7.296;2024-01-11T05:36:39;99269.28;;;-6.14;100.00
4398;BME280;2213;49.720;7.296;2024-01-11T05:39:08;99271.19;;;-6.19;100.00
4398;BME280;2213;49.720;7.296;2024-01-11T05:41:36;99274.50;;;-6.17;100.00
4398;BME280;2213;49.720;7.296;2024-01-11T05:44:05;99276.16;;;-6.16;100.00
4398;BME280;2213;49.720;7.296;2024-01-11T05:46:34;99278.25;;;-6.27;100.00
4398;BME280;2213;49.720;7.296;2024-01-11T05:49:02;99278.47;;;-6.33;100.00
4398;BME280;2213;49.720;7.296;2024-01-11T05:51:32;99283.69;;;-6.38;100.00
4398;BME280;2213;49.720;7.296;2024-01-11T05:54:01;99288.75;;;-6.36;100.00
4398;BME280;2213;49.720;7.296;2024-01-11T05:56:29;99291.44;;;-6.41;100.00
4398;BME280;2213;49.720;7.296;2024-01-11T05:58:58;99301.75;;;-6.45;100.00
4398;BME280;2213;49.720;7.296;2024-01-11T06:01:27;99294.84;;;-6.42;100.00
4398;BME280;2213;49.720;7.296;2024-01-11T06:03:55;99294.91;;;-6.43;100.00
4398;BME280;2213;49.720;7.296;2024-01-11T06:06:24;99294.84;;;-6.42;100.00
4398;BME280;2213;49.720;7.296;2024-01-11T06:08:54;99294.13;;;-6.45;100.00
4398;BME280;2213;49.720;7.296;2024-01-11T06:11:22;99294.13;;;-6.45;100.00
4398;BME280;2213;49.720;7.296;2024-01-11T06:13:51;99299.19;;;-6.45;100.00
4398;BME280;2213;49.720;7.296;2024-01-11T06:16:19;99304.50;;;-6.51;100.00
4398;BME280;2213;49.720;7.296;2024-01-11T06:18:48;99305.31;;;-6.49;100.00
4398;BME280;2213;49.720;7.296;2024-01-11T06:21:16;99298.41;;;-6.46;100.00
4398;BME280;2213;49.720;7.296;2024-01-11T06:23:45;99295.06;;;-6.48;100.00
4398;BME280;2213;49.720;7.296;2024-01-11T06:26:15;99302.78;;;-6.51;100.00
4398;BME280;2213;49.720;7.296;2024-01-11T06:28:44;99316.25;;;-6.47;100.00
4398;BME280;2213;49.720;7.296;2024-01-11T06:31:12;99314.75;;;-6.53;100.00
4398;BME280;2213;49.720;7.296;2024-01-11T06:33:41;99317.38;;;-6.56;100.00
4398;BME280;2213;49.720;7.296;2024-01-11T06:36:10;99326.63;;;-6.53;100.00
4398;BME280;2213;49.720;7.296;2024-01-11T06:38:38;99333.56;;;-6.58;100.00
4398;BME280;2213;49.720;7.296;2024-01-11T06:41:09;99331.13;;;-6.62;100.00
4398;BME280;2213;49.720;7.296;2024-01-11T06:43:39;99336.84;;;-6.55;100.00
4398;BME280;2213;49.720;7.296;2024-01-11T06:46:07;99345.38;;;-6.56;100.00
4398;BME280;2213;49.720;7.296;2024-01-11T06:48:38;99339.44;;;-6.56;100.00
4398;BME280;2213;49.720;7.296;2024-01-11T06:51:06;99347.97;;;-6.59;100.00
4398;BME280;2213;49.720;7.296;2024-01-11T06:53:37;99360.66;;;-6.57;100.00
4398;BME280;2213;49.720;7.296;2024-01-11T06:56:14;99354.88;;;-6.63;100.00
4398;BME280;2213;49.720;7.296;2024-01-11T06:58:45;99366.03;;;-6.67;100.00
4398;BME280;2213;49.720;7.296;2024-01-11T07:01:13;99378.59;;;-6.62;100.00
4398;BME280;2213;49.720;7.296;2024-01-11T07:03:42;99376.94;;;-6.63;100.00
4398;BME280;2213;49.720;7.296;2024-01-11T07:06:11;99379.53;;;-6.65;100.00
4398;BME280;2213;49.720;7.296;2024-01-11T07:08:40;99382.84;;;-6.63;100.00
4398;BME280;2213;49.720;7.296;2024-01-11T07:11:09;99379.63;;;-6.68;100.00
4398;BME280;2213;49.720;7.296;2024-01-11T07:13:38;99386.28;;;-6.64;100.00
4398;BME280;2213;49.720;7.296;2024-01-11T07:16:08;99376.13;;;-6.64;100.00
4398;BME280;2213;49.720;7.296;2024-01-11T07:18:41;99389.78;;;-6.68;100.00
4398;BME280;2213;49.720;7.296;2024-01-11T07:21:10;99383.00;;;-6.67;100.00
4398;BME280;2213;49.720;7.296;2024-01-11T07:23:38;99377.84;;;-6.66;100.00
4398;BME280;2213;49.720;7.296;2024-01-11T07:26:07;99381.22;;;-6.65;100.00
4398;BME280;2213;49.720;7.296;2024-01-11T07:28:35;99382.19;;;-6.69;100.00
4398;BME280;2213;49.720;7.296;2024-01-11T07:31:04;99383.91;;;-6.70;100.00
4398;BME280;2213;49.720;7.296;2024-01-11T07:33:34;99374.63;;;-6.71;100.00
4398;BME280;2213;49.720;7.296;2024-01-11T07:36:05;99380.50;;;-6.69;100.00
4398;BME280;2213;49.720;7.296;2024-01-11T07:38:33;99387.16;;;-6.65;100.00
4398;BME280;2213;49.720;7.296;2024-01-11T07:41:02;99388.03;;;-6.66;100.00
4398;BME280;2213;49.720;7.296;2024-01-11T07:43:31;99394.03;;;-6.68;100.00
4398;BME280;2213;49.720;7.296;2024-01-11T07:46:19;99377.31;;;-6.75;100.00
4398;BME280;2213;49.720;7.296;2024-01-11T07:49:03;99393.31;;;-6.72;100.00
4398;BME280;2213;49.720;7.296;2024-01-11T07:51:33;99388.03;;;-6.66;100.00
4398;BME280;2213;49.720;7.296;2024-01-11T07:54:02;99395.66;;;-6.66;100.00
4398;BME280;2213;49.720;7.296;2024-01-11T07:56:32;99390.22;;;-6.55;100.00
4398;BME280;2213;49.720;7.296;2024-01-11T07:59:02;99385.16;;;-6.55;100.00
4398;BME280;2213;49.720;7.296;2024-01-11T08:01:31;99392.75;;;-6.53;100.00
4398;BME280;2213;49.720;7.296;2024-01-11T08:04:04;99389.41;;;-6.55;100.00
4398;BME280;2213;49.720;7.296;2024-01-11T08:06:33;99389.41;;;-6.55;100.00
4398;BME280;2213;49.720;7.296;2024-01-11T08:09:02;99390.97;;;-6.51;100.00
4398;BME280;2213;49.720;7.296;2024-01-11T08:11:32;99395.19;;;-6.50;100.00
4398;BME280;2213;49.720;7.296;2024-01-11T08:14:04;99394.31;;;-6.49;100.00
4398;BME280;2213;49.720;7.296;2024-01-11T08:16:33;99397.75;;;-6.52;100.00
4398;BME280;2213;49.720;7.296;2024-01-11T08:19:03;99402.72;;;-6.47;100.00
4398;BME280;2213;49.720;7.296;2024-01-11T08:21:32;99403.56;;;-6.47;100.00
4398;BME280;2213;49.720;7.296;2024-01-11T08:24:01;99395.78;;;-6.42;100.00
4398;BME280;2213;49.720;7.296;2024-01-11T08:26:30;99413.50;;;-6.39;100.00
4398;BME280;2213;49.720;7.296;2024-01-11T08:28:58;99404.94;;;-6.37;100.00
4398;BME280;2213;49.720;7.296;2024-01-11T08:31:27;99402.34;;;-6.35;100.00
4398;BME280;2213;49.720;7.296;2024-01-11T08:33:56;99392.22;;;-6.37;100.00
4398;BME280;2213;49.720;7.296;2024-01-11T08:36:31;99399.63;;;-6.31;100.00
4398;BME280;2213;49.720;7.296;2024-01-11T08:39:02;99393.63;;;-6.28;100.00
4398;BME280;2213;49.720;7.296;2024-01-11T08:41:32;99392.69;;;-6.26;100.00
4398;BME280;2213;49.720;7.296;2024-01-11T08:44:01;99391.00;;;-6.25;100.00
4398;BME280;2213;49.720;7.296;2024-01-11T08:46:30;99392.50;;;-6.20;100.00
4398;BME280;2213;49.720;7.296;2024-01-11T08:49:01;99387.28;;;-6.17;100.00
4398;BME280;2213;49.720;7.296;2024-01-11T08:51:32;99388.81;;;-6.11;100.00
4398;BME280;2213;49.720;7.296;2024-01-11T08:54:01;99388.88;;;-6.13;100.00
4398;BME280;2213;49.720;7.296;2024-01-11T08:56:31;99384.59;;;-6.12;100.00
4398;BME280;2213;49.720;7.296;2024-01-11T08:59:00;99385.34;;;-6.08;100.00
4398;BME280;2213;49.720;7.296;2024-01-11T09:01:28;99383.53;;;-6.05;100.00
4398;BME280;2213;49.720;7.296;2024-01-11T09:03:57;99387.56;;;-5.99;100.00
4398;BME280;2213;49.720;7.296;2024-01-11T09:06:26;99384.97;;;-5.98;100.00
4398;BME280;2213;49.720;7.296;2024-01-11T09:08:56;99383.16;;;-5.94;100.00
4398;BME280;2213;49.720;7.296;2024-01-11T09:11:24;99384.66;;;-5.89;100.00
4398;BME280;2213;49.720;7.296;2024-01-11T09:13:53;99388.00;;;-5.87;100.00
4398;BME280;2213;49.720;7.296;2024-01-11T09:16:21;99381.00;;;-5.82;100.00
4398;BME280;2213;49.720;7.296;2024-01-11T09:18:50;99385.09;;;-5.78;100.00
4398;BME280;2213;49.720;7.296;2024-01-11T09:21:19;99383.25;;;-5.73;100.00
4398;BME280;2213;49.720;7.296;2024-01-11T09:23:48;99388.22;;;-5.70;100.00
4398;BME280;2213;49.720;7.296;2024-01-11T09:26:18;99394.03;;;-5.66;100.00
4398;BME280;2213;49.720;7.296;2024-01-11T09:28:46;99387.00;;;-5.60;100.00
4398;BME280;2213;49.720;7.296;2024-01-11T09:31:15;99391.19;;;-5.59;100.00
4398;BME280;2213;49.720;7.296;2024-01-11T09:33:43;99388.50;;;-5.54;100.00
4398;BME280;2213;49.720;7.296;2024-01-11T09:36:13;99393.38;;;-5.48;100.00
4398;BME280;2213;49.720;7.296;2024-01-11T09:38:42;99402.53;;;-5.42;100.00
4398;BME280;2213;49.720;7.296;2024-01-11T09:41:13;99404.91;;;-5.38;100.00
4398;BME280;2213;49.720;7.296;2024-01-11T09:43:43;99409.81;;;-5.32;100.00
4398;BME280;2213;49.720;7.296;2024-01-11T09:46:12;99411.34;;;-5.28;100.00
4398;BME280;2213;49.720;7.296;2024-01-11T09:48:44;99412.84;;;-5.22;100.00
4398;BME280;2213;49.720;7.296;2024-01-11T09:51:15;99422.91;;;-5.19;100.00
4398;BME280;2213;49.720;7.296;2024-01-11T09:53:44;99422.75;;;-5.15;100.00
4398;BME280;2213;49.720;7.296;2024-01-11T09:56:12;99418.31;;;-5.10;100.00
4398;BME280;2213;49.720;7.296;2024-01-11T09:58:47;99417.28;;;-5.04;100.00
4398;BME280;2213;49.720;7.296;2024-01-11T10:01:17;99412.66;;;-4.94;100.00
4398;BME280;2213;49.720;7.296;2024-01-11T10:03:46;99415.38;;;-4.76;100.00
4398;BME280;2213;49.720;7.296;2024-01-11T10:06:14;99418.25;;;-4.63;100.00
4398;BME280;2213;49.720;7.296;2024-01-11T10:08:44;99423.78;;;-4.52;100.00
4398;BME280;2213;49.720;7.296;2024-01-11T10:11:12;99427.56;;;-4.40;100.00
4398;BME280;2213;49.720;7.296;2024-01-11T10:13:43;99418.59;;;-4.29;100.00
4398;BME280;2213;49.720;7.296;2024-01-11T10:16:13;99410.66;;;-4.21;100.00
4398;BME280;2213;49.720;7.296;2024-01-11T10:18:42;99409.34;;;-4.10;100.00
4398;BME280;2213;49.720;7.296;2024-01-11T10:21:11;99397.06;;;-4.01;100.00
4398;BME280;2213;49.720;7.296;2024-01-11T10:23:42;99395.75;;;-3.90;100.00
4398;BME280;2213;49.720;7.296;2024-01-11T10:26:10;99388.50;;;-3.80;100.00
4398;BME280;2213;49.720;7.296;2024-01-11T10:28:39;99390.47;;;-3.67;100.00
4398;BME280;2213;49.720;7.296;2024-01-11T10:31:09;99385.09;;;-3.61;100.00
4398;BME280;2213;49.720;7.296;2024-01-11T10:33:38;99380.59;;;-3.54;100.00
4398;BME280;2213;49.720;7.296;2024-01-11T10:36:07;99376.84;;;-3.47;100.00
4398;BME280;2213;49.720;7.296;2024-01-11T10:38:39;99379.97;;;-3.40;100.00
4398;BME280;2213;49.720;7.296;2024-01-11T10:41:09;99378.91;;;-3.36;100.00
4398;BME280;2213;49.720;7.296;2024-01-11T10:43:38;99381.22;;;-3.30;100.00
4398;BME280;2213;49.720;7.296;2024-01-11T10:46:11;99375.06;;;-3.26;100.00
4398;BME280;2213;49.720;7.296;2024-01-11T10:48:45;99377.50;;;-3.23;100.00
4398;BME280;2213;49.720;7.296;2024-01-11T10:51:19;99378.13;;;-3.18;100.00
4398;BME280;2213;49.720;7.296;2024-01-11T10:53:53;99380.38;;;-3.12;100.00
4398;BME280;2213;49.720;7.296;2024-01-11T10:56:24;99381.84;;;-3.07;100.00
4398;BME280;2213;49.720;7.296;2024-01-11T10:58:56;99398.59;;;-2.99;100.00
4398;BME280;2213;49.720;7.296;2024-01-11T11:01:28;99401.69;;;-2.93;100.00
4398;BME280;2213;49.720;7.296;2024-01-11T11:03:58;99398.09;;;-2.89;100.00
4398;BME280;2213;49.720;7.296;2024-01-11T11:06:31;99398.72;;;-2.84;100.00
4398;BME280;2213;49.720;7.296;2024-01-11T11:09:05;99383.91;;;-2.77;100.00
4398;BME280;2213;49.720;7.296;2024-01-11T11:11:36;99374.28;;;-2.72;100.00
4398;BME280;2213;49.720;7.296;2024-01-11T11:14:06;99367.16;;;-2.66;100.00
4398;BME280;2213;49.720;7.296;2024-01-11T11:16:37;99366.03;;;-2.60;100.00
4398;BME280;2213;49.720;7.296;2024-01-11T11:19:07;99359.81;;;-2.55;100.00
4398;BME280;2213;49.720;7.296;2024-01-11T11:21:42;99362.16;;;-2.50;100.00
4398;BME280;2213;49.720;7.296;2024-01-11T11:24:12;99372.94;;;-2.43;100.00
4398;BME280;2213;49.720;7.296;2024-01-11T11:26:41;99369.28;;;-2.39;100.00
4398;BME280;2213;49.720;7.296;2024-01-11T11:29:09;99364.72;;;-2.33;100.00
4398;BME280;2213;49.720;7.296;2024-01-11T11:31:44;99370.38;;;-2.26;100.00
4398;BME280;2213;49.720;7.296;2024-01-11T11:34:15;99364.22;;;-2.22;100.00
4398;BME280;2213;49.720;7.296;2024-01-11T11:36:47;99367.38;;;-2.17;100.00
4398;BME280;2213;49.720;7.296;2024-01-11T11:39:18;99355.16;;;-2.12;100.00
4398;BME280;2213;49.720;7.296;2024-01-11T11:41:47;99342.88;;;-2.06;100.00
4398;BME280;2213;49.720;7.296;2024-01-11T11:44:17;99341.91;;;-2.03;100.00
4398;BME280;2213;49.720;7.296;2024-01-11T11:46:47;99337.50;;;-2.01;100.00
4398;BME280;2213;49.720;7.296;2024-01-11T11:49:15;99347.63;;;-1.98;100.00
4398;BME280;2213;49.720;7.296;2024-01-11T11:51:44;99345.66;;;-1.93;100.00
4398;BME280;2213;49.720;7.296;2024-01-11T11:54:14;99348.88;;;-1.89;100.00
4398;BME280;2213;49.720;7.296;2024-01-11T11:56:43;99344.94;;;-1.79;100.00
4398;BME280;2213;49.720;7.296;2024-01-11T11:59:13;99349.09;;;-1.77;100.00
4398;BME280;2213;49.720;7.296;2024-01-11T12:01:43;99340.34;;;-1.73;100.00
4398;BME280;2213;49.720;7.296;2024-01-11T12:04:14;99343.66;;;-1.71;100.00
4398;BME280;2213;49.720;7.296;2024-01-11T12:06:44;99346.06;;;-1.68;100.00
4398;BME280;2213;49.720;7.296;2024-01-11T12:09:18;99335.44;;;-1.60;100.00
4398;BME280;2213;49.720;7.296;2024-01-11T12:11:49;99336.91;;;-1.56;100.00
4398;BME280;2213;49.720;7.296;2024-01-11T12:14:33;99334.94;;;-1.51;100.00
4398;BME280;2213;49.720;7.296;2024-01-11T12:17:02;99338.16;;;-1.47;100.00
4398;BME280;2213;49.720;7.296;2024-01-11T12:19:32;99337.94;;;-1.43;100.00
4398;BME280;2213;49.720;7.296;2024-01-11T12:22:01;99335.94;;;-1.38;100.00
4398;BME280;2213;49.720;7.296;2024-01-11T12:24:30;99337.38;;;-1.32;100.00
4398;BME280;2213;49.720;7.296;2024-01-11T12:27:00;99334.06;;;-1.34;100.00
4398;BME280;2213;49.720;7.296;2024-01-11T12:29:29;99330.66;;;-1.35;100.00
4398;BME280;2213;49.720;7.296;2024-01-11T12:32:10;99313.38;;;-1.31;100.00
4398;BME280;2213;49.720;7.296;2024-01-11T12:34:43;99312.28;;;-1.27;100.00
4398;BME280;2213;49.720;7.296;2024-01-11T12:37:12;99315.47;;;-1.22;100.00
4398;BME280;2213;49.720;7.296;2024-01-11T12:39:41;99319.34;;;-1.15;100.00
4398;BME280;2213;49.720;7.296;2024-01-11T12:42:09;99309.81;;;-1.13;100.00
4398;BME280;2213;49.720;7.296;2024-01-11T12:44:38;99319.91;;;-1.10;100.00
4398;BME280;2213;49.720;7.296;2024-01-11T12:47:08;99318.84;;;-1.06;100.00
4398;BME280;2213;49.720;7.296;2024-01-11T12:49:37;99316.94;;;-1.03;100.00
4398;BME280;2213;49.720;7.296;2024-01-11T12:52:07;99321.25;;;-1.03;100.00
4398;BME280;2213;49.720;7.296;2024-01-11T12:54:36;99324.56;;;-1.01;100.00
4398;BME280;2213;49.720;7.296;2024-01-11T12:57:04;99322.56;;;-0.96;100.00
4398;BME280;2213;49.720;7.296;2024-01-11T12:59:33;99325.06;;;-0.94;100.00
4398;BME280;2213;49.720;7.296;2024-01-11T13:02:02;99314.38;;;-0.87;100.00
4398;BME280;2213;49.720;7.296;2024-01-11T13:04:30;99318.41;;;-0.83;100.00
4398;BME280;2213;49.720;7.296;2024-01-11T13:06:59;99305.31;;;-0.78;100.00
4398;BME280;2213;49.720;7.296;2024-01-11T13:09:30;99304.97;;;-0.72;100.00
4398;BME280;2213;49.720;7.296;2024-01-11T13:11:59;99306.56;;;-0.70;100.00
4398;BME280;2213;49.720;7.296;2024-01-11T13:14:27;99313.16;;;-0.66;100.00
4398;BME280;2213;49.720;7.296;2024-01-11T13:16:56;99310.28;;;-0.60;100.00
4398;BME280;2213;49.720;7.296;2024-01-11T13:19:24;99311.84;;;-0.57;100.00
4398;BME280;2213;49.720;7.296;2024-01-11T13:21:54;99311.59;;;-0.53;100.00